sensor_id;sensor_type;location;lat;lon;timestamp;P1;durP1;ratioP1;P2;durP2;ratioP2
38637;SDS011;24401;53.034;-3.030;2022-12-11T00:00:47;35.67;;;15.10;;
38637;SDS011;24401;53.034;-3.030;2022-12-11T00:03:17;18.67;;;9.90;;
38637;SDS011;24401;53.034;-3.030;2022-12-11T00:05:48;23.27;;;10.60;;
38637;SDS011;24401;53.034;-3.030;2022-12-11T00:08:18;28.90;;;10.60;;
38637;SDS011;24401;53.034;-3.030;2022-12-11T00:10:48;22.73;;;9.87;;
38637;SDS011;24401;53.034;-3.030;2022-12-11T00:13:18;16.58;;;9.73;;
38637;SDS011;24401;53.034;-3.030;2022-12-11T00:15:49;14.83;;;10.33;;
38637;SDS011;24401;53.034;-3.030;2022-12-11T00:18:19;16.90;;;9.50;;
38637;SDS011;24401;53.034;-3.030;2022-12-11T00:20:49;11.90;;;10.30;;
38637;SDS011;24401;53.034;-3.030;2022-12-11T00:23:20;11.90;;;9.32;;
38637;SDS011;24401;53.034;-3.030;2022-12-11T00:25:50;17.63;;;10.00;;
38637;SDS011;24401;53.034;-3.030;2022-12-11T00:28:20;16.67;;;8.57;;
38637;SDS011;24401;53.034;-3.030;2022-12-11T00:30:51;13.03;;;9.27;;
38637;SDS011;24401;53.034;-3.030;2022-12-11T00:33:21;9.03;;;7.27;;
38637;SDS011;24401;53.034;-3.030;2022-12-11T00:35:51;14.43;;;9.60;;
38637;SDS011;24401;53.034;-3.030;2022-12-11T00:38:22;11.83;;;8.27;;
38637;SDS011;24401;53.034;-3.030;2022-12-11T00:40:56;11.73;;;7.13;;
38637;SDS011;24401;53.034;-3.030;2022-12-11T00:43:26;7.45;;;6.38;;
38637;SDS011;24401;53.034;-3.030;2022-12-11T00:45:57;12.30;;;8.27;;
38637;SDS011;24401;53.034;-3.030;2022-12-11T00:48:27;14.07;;;7.37;;
38637;SDS011;24401;53.034;-3.030;2022-12-11T00:50:57;7.70;;;7.00;;
38637;SDS011;24401;53.034;-3.030;2022-12-11T00:53:27;9.33;;;6.73;;
38637;SDS011;24401;53.034;-3.030;2022-12-11T00:55:58;7.43;;;6.17;;
38637;SDS011;24401;53.034;-3.030;2022-12-11T00:58:28;7.07;;;5.43;;
38637;SDS011;24401;53.034;-3.030;2022-12-11T01:01:03;9.17;;;5.73;;
38637;SDS011;24401;53.034;-3.030;2022-12-11T01:03:34;8.10;;;4.68;;
38637;SDS011;24401;53.034;-3.030;2022-12-11T01:06:04;5.63;;;5.13;;
38637;SDS011;24401;53.034;-3.030;2022-12-11T01:08:35;5.72;;;5.22;;
38637;SDS011;24401;53.034;-3.030;2022-12-11T01:11:06;11.67;;;5.23;;
38637;SDS011;24401;53.034;-3.030;2022-12-11T01:13:38;11.02;;;5.28;;
38637;SDS011;24401;53.034;-3.030;2022-12-11T01:16:10;6.55;;;4.40;;
38637;SDS011;24401;53.034;-3.030;2022-12-11T01:18:41;6.55;;;4.57;;
38637;SDS011;24401;53.034;-3.030;2022-12-11T01:21:11;9.23;;;5.90;;
38637;SDS011;24401;53.034;-3.030;2022-12-11T01:23:42;5.28;;;3.97;;
38637;SDS011;24401;53.034;-3.030;2022-12-11T01:26:13;6.47;;;4.38;;
38637;SDS011;24401;53.034;-3.030;2022-12-11T01:28:44;4.60;;;4.20;;
38637;SDS011;24401;53.034;-3.030;2022-12-11T01:31:14;5.55;;;4.82;;
38637;SDS011;24401;53.034;-3.030;2022-12-11T01:33:45;7.07;;;4.22;;
38637;SDS011;24401;53.034;-3.030;2022-12-11T01:36:17;5.00;;;4.50;;
38637;SDS011;24401;53.034;-3.030;2022-12-11T01:38:48;8.50;;;5.13;;
38637;SDS011;24401;53.034;-3.030;2022-12-11T01:41:18;8.87;;;5.03;;
38637;SDS011;24401;53.034;-3.030;2022-12-11T01:43:59;7.10;;;4.00;;
38637;SDS011;24401;53.034;-3.030;2022-12-11T01:46:30;5.25;;;4.75;;
38637;SDS011;24401;53.034;-3.030;2022-12-11T01:49:02;4.72;;;3.92;;
38637;SDS011;24401;53.034;-3.030;2022-12-11T01:54:05;4.80;;;4.30;;
38637;SDS011;24401;53.034;-3.030;2022-12-11T01:56:36;10.98;;;4.80;;
38637;SDS011;24401;53.034;-3.030;2022-12-11T01:59:07;5.07;;;4.57;;
38637;SDS011;24401;53.034;-3.030;2022-12-11T02:01:39;7.20;;;4.72;;
38637;SDS011;24401;53.034;-3.030;2022-12-11T02:04:11;8.15;;;4.45;;
38637;SDS011;24401;53.034;-3.030;2022-12-11T02:06:44;7.68;;;4.18;;
38637;SDS011;24401;53.034;-3.030;2022-12-11T02:09:15;10.02;;;4.85;;
38637;SDS011;24401;53.034;-3.030;2022-12-11T02:17:16;5.65;;;5.15;;
38637;SDS011;24401;53.034;-3.030;2022-12-11T02:19:54;9.02;;;4.28;;
38637;SDS011;24401;53.034;-3.030;2022-12-11T02:22:30;5.35;;;4.32;;
38637;SDS011;24401;53.034;-3.030;2022-12-11T02:25:06;4.45;;;4.05;;
38637;SDS011;24401;53.034;-3.030;2022-12-11T02:27:47;4.80;;;4.30;;
38637;SDS011;24401;53.034;-3.030;2022-12-11T02:30:22;5.07;;;4.47;;
38637;SDS011;24401;53.034;-3.030;2022-12-11T02:32:56;4.53;;;4.03;;
38637;SDS011;24401;53.034;-3.030;2022-12-11T02:35:29;5.65;;;4.18;;
38637;SDS011;24401;53.034;-3.030;2022-12-11T02:38:03;6.47;;;4.90;;
38637;SDS011;24401;53.034;-3.030;2022-12-11T02:40:36;5.68;;;4.00;;
38637;SDS011;24401;53.034;-3.030;2022-12-11T02:43:07;5.50;;;5.00;;
38637;SDS011;24401;53.034;-3.030;2022-12-11T02:45:39;5.93;;;5.40;;
38637;SDS011;24401;53.034;-3.030;2022-12-11T02:48:10;6.97;;;6.03;;
38637;SDS011;24401;53.034;-3.030;2022-12-11T02:50:42;6.10;;;5.07;;
38637;SDS011;24401;53.034;-3.030;2022-12-11T02:53:16;10.35;;;6.75;;
38637;SDS011;24401;53.034;-3.030;2022-12-11T02:55:46;8.65;;;7.57;;
38637;SDS011;24401;53.034;-3.030;2022-12-11T02:58:26;16.08;;;7.68;;
38637;SDS011;24401;53.034;-3.030;2022-12-11T03:00:58;12.73;;;8.73;;
38637;SDS011;24401;53.034;-3.030;2022-12-11T03:03:29;12.73;;;10.30;;
38637;SDS011;24401;53.034;-3.030;2022-12-11T03:05:59;17.35;;;11.68;;
38637;SDS011;24401;53.034;-3.030;2022-12-11T03:08:30;19.73;;;10.23;;
38637;SDS011;24401;53.034;-3.030;2022-12-11T03:11:00;11.60;;;10.47;;
38637;SDS011;24401;53.034;-3.030;2022-12-11T03:13:31;13.25;;;10.02;;
38637;SDS011;24401;53.034;-3.030;2022-12-11T03:16:11;10.67;;;7.93;;
38637;SDS011;24401;53.034;-3.030;2022-12-11T03:18:51;15.80;;;10.75;;
38637;SDS011;24401;53.034;-3.030;2022-12-11T03:23:57;19.20;;;10.50;;
38637;SDS011;24401;53.034;-3.030;2022-12-11T03:26:27;14.15;;;11.02;;
38637;SDS011;24401;53.034;-3.030;2022-12-11T03:29:00;19.60;;;11.30;;
38637;SDS011;24401;53.034;-3.030;2022-12-11T03:34:07;14.57;;;11.13;;
38637;SDS011;24401;53.034;-3.030;2022-12-11T03:36:39;17.90;;;12.32;;
38637;SDS011;24401;53.034;-3.030;2022-12-11T03:41:41;23.48;;;11.73;;
38637;SDS011;24401;53.034;-3.030;2022-12-11T03:44:13;21.35;;;12.25;;
38637;SDS011;24401;53.034;-3.030;2022-12-11T03:46:44;19.80;;;11.77;;
38637;SDS011;24401;53.034;-3.030;2022-12-11T03:49:16;17.08;;;12.70;;
38637;SDS011;24401;53.034;-3.030;2022-12-11T03:51:47;24.50;;;12.82;;
38637;SDS011;24401;53.034;-3.030;2022-12-11T03:54:18;21.42;;;11.75;;
38637;SDS011;24401;53.034;-3.030;2022-12-11T03:56:50;19.30;;;9.43;;
38637;SDS011;24401;53.034;-3.030;2022-12-11T03:59:22;30.95;;;12.80;;
38637;SDS011;24401;53.034;-3.030;2022-12-11T04:01:52;32.33;;;14.30;;
38637;SDS011;24401;53.034;-3.030;2022-12-11T04:04:23;23.08;;;12.70;;
38637;SDS011;24401;53.034;-3.030;2022-12-11T04:06:53;30.03;;;13.60;;
38637;SDS011;24401;53.034;-3.030;2022-12-11T04:09:23;32.92;;;12.68;;
38637;SDS011;24401;53.034;-3.030;2022-12-11T04:11:53;27.80;;;13.98;;
38637;SDS011;24401;53.034;-3.030;2022-12-11T04:14:24;43.10;;;14.98;;
38637;SDS011;24401;53.034;-3.030;2022-12-11T04:17:13;37.70;;;14.45;;
38637;SDS011;24401;53.034;-3.030;2022-12-11T04:20:03;28.08;;;14.80;;
38637;SDS011;24401;53.034;-3.030;2022-12-11T04:22:54;55.00;;;13.93;;
38637;SDS011;24401;53.034;-3.030;2022-12-11T04:25:43;40.35;;;13.77;;
38637;SDS011;24401;53.034;-3.030;2022-12-11T04:28:13;39.17;;;14.87;;
38637;SDS011;24401;53.034;-3.030;2022-12-11T04:30:47;44.23;;;13.97;;
38637;SDS011;24401;53.034;-3.030;2022-12-11T04:33:18;55.40;;;14.65;;
38637;SDS011;24401;53.034;-3.030;2022-12-11T04:35:48;47.63;;;10.40;;
38637;SDS011;24401;53.034;-3.030;2022-12-11T04:38:18;68.57;;;13.97;;
38637;SDS011;24401;53.034;-3.030;2022-12-11T04:40:49;57.37;;;15.47;;
38637;SDS011;24401;53.034;-3.030;2022-12-11T04:43:25;43.58;;;13.90;;
38637;SDS011;24401;53.034;-3.030;2022-12-11T04:46:03;72.93;;;15.57;;
38637;SDS011;24401;53.034;-3.030;2022-12-11T04:48:34;81.85;;;14.60;;
38637;SDS011;24401;53.034;-3.030;2022-12-11T04:51:05;67.63;;;14.38;;
38637;SDS011;24401;53.034;-3.030;2022-12-11T04:53:35;74.80;;;16.20;;
38637;SDS011;24401;53.034;-3.030;2022-12-11T04:56:06;59.53;;;14.38;;
38637;SDS011;24401;53.034;-3.030;2022-12-11T04:58:37;73.40;;;15.03;;
38637;SDS011;24401;53.034;-3.030;2022-12-11T05:01:08;102.30;;;15.00;;
38637;SDS011;24401;53.034;-3.030;2022-12-11T05:03:39;70.55;;;14.88;;
38637;SDS011;24401;53.034;-3.030;2022-12-11T05:06:09;101.07;;;16.47;;
38637;SDS011;24401;53.034;-3.030;2022-12-11T05:08:40;96.63;;;15.00;;
38637;SDS011;24401;53.034;-3.030;2022-12-11T05:11:11;55.37;;;15.47;;
38637;SDS011;24401;53.034;-3.030;2022-12-11T05:13:42;67.03;;;15.98;;
38637;SDS011;24401;53.034;-3.030;2022-12-11T05:16:13;54.30;;;15.67;;
38637;SDS011;24401;53.034;-3.030;2022-12-11T05:18:43;70.05;;;15.50;;
38637;SDS011;24401;53.034;-3.030;2022-12-11T05:21:14;54.70;;;15.37;;
38637;SDS011;24401;53.034;-3.030;2022-12-11T05:23:44;43.97;;;15.65;;
38637;SDS011;24401;53.034;-3.030;2022-12-11T05:26:18;41.90;;;15.70;;
38637;SDS011;24401;53.034;-3.030;2022-12-11T05:28:50;33.53;;;15.77;;
38637;SDS011;24401;53.034;-3.030;2022-12-11T05:31:21;28.30;;;15.07;;
38637;SDS011;24401;53.034;-3.030;2022-12-11T05:36:26;26.55;;;15.13;;
38637;SDS011;24401;53.034;-3.030;2022-12-11T05:38:57;47.55;;;15.20;;
38637;SDS011;24401;53.034;-3.030;2022-12-11T05:41:29;56.37;;;14.53;;
38637;SDS011;24401;53.034;-3.030;2022-12-11T05:43:59;73.63;;;14.25;;
38637;SDS011;24401;53.034;-3.030;2022-12-11T05:46:30;37.27;;;14.13;;
38637;SDS011;24401;53.034;-3.030;2022-12-11T05:49:00;58.17;;;14.37;;
38637;SDS011;24401;53.034;-3.030;2022-12-11T05:51:31;64.07;;;14.83;;
38637;SDS011;24401;53.034;-3.030;2022-12-11T05:54:03;79.35;;;13.68;;
38637;SDS011;24401;53.034;-3.030;2022-12-11T05:56:34;56.23;;;13.97;;
38637;SDS011;24401;53.034;-3.030;2022-12-11T05:59:05;50.80;;;14.90;;
38637;SDS011;24401;53.034;-3.030;2022-12-11T06:01:39;52.17;;;14.40;;
38637;SDS011;24401;53.034;-3.030;2022-12-11T06:04:10;54.25;;;14.65;;
38637;SDS011;24401;53.034;-3.030;2022-12-11T06:06:41;67.60;;;15.50;;
38637;SDS011;24401;53.034;-3.030;2022-12-11T06:09:13;59.00;;;14.35;;
38637;SDS011;24401;53.034;-3.030;2022-12-11T06:11:43;73.25;;;14.45;;
38637;SDS011;24401;53.034;-3.030;2022-12-11T06:14:14;54.00;;;12.80;;
38637;SDS011;24401;53.034;-3.030;2022-12-11T06:16:44;79.33;;;14.93;;
38637;SDS011;24401;53.034;-3.030;2022-12-11T06:19:14;68.63;;;14.27;;
38637;SDS011;24401;53.034;-3.030;2022-12-11T06:21:46;70.35;;;15.55;;
38637;SDS011;24401;53.034;-3.030;2022-12-11T06:24:17;46.40;;;13.50;;
38637;SDS011;24401;53.034;-3.030;2022-12-11T06:26:48;60.13;;;14.20;;
38637;SDS011;24401;53.034;-3.030;2022-12-11T06:29:18;44.40;;;13.87;;
38637;SDS011;24401;53.034;-3.030;2022-12-11T06:31:48;67.97;;;13.90;;
38637;SDS011;24401;53.034;-3.030;2022-12-11T06:34:18;36.60;;;11.33;;
38637;SDS011;24401;53.034;-3.030;2022-12-11T06:36:49;78.90;;;14.50;;
38637;SDS011;24401;53.034;-3.030;2022-12-11T06:39:19;63.77;;;15.07;;
38637;SDS011;24401;53.034;-3.030;2022-12-11T06:41:49;27.03;;;13.93;;
38637;SDS011;24401;53.034;-3.030;2022-12-11T06:44:19;32.67;;;14.23;;
38637;SDS011;24401;53.034;-3.030;2022-12-11T06:46:50;39.53;;;15.13;;
38637;SDS011;24401;53.034;-3.030;2022-12-11T06:49:20;48.03;;;15.20;;
38637;SDS011;24401;53.034;-3.030;2022-12-11T06:51:50;38.07;;;14.43;;
38637;SDS011;24401;53.034;-3.030;2022-12-11T06:54:24;34.57;;;15.07;;
38637;SDS011;24401;53.034;-3.030;2022-12-11T06:56:54;45.33;;;15.23;;
38637;SDS011;24401;53.034;-3.030;2022-12-11T06:59:24;54.50;;;14.63;;
38637;SDS011;24401;53.034;-3.030;2022-12-11T07:01:55;52.03;;;14.03;;
38637;SDS011;24401;53.034;-3.030;2022-12-11T07:04:25;57.17;;;15.30;;
38637;SDS011;24401;53.034;-3.030;2022-12-11T07:06:56;42.20;;;15.20;;
38637;SDS011;24401;53.034;-3.030;2022-12-11T07:09:26;47.73;;;16.97;;
38637;SDS011;24401;53.034;-3.030;2022-12-11T07:11:58;55.90;;;15.82;;
38637;SDS011;24401;53.034;-3.030;2022-12-11T07:14:29;45.38;;;17.33;;
38637;SDS011;24401;53.034;-3.030;2022-12-11T07:16:59;83.03;;;18.83;;
38637;SDS011;24401;53.034;-3.030;2022-12-11T07:19:29;61.87;;;16.20;;
38637;SDS011;24401;53.034;-3.030;2022-12-11T07:22:00;46.73;;;17.20;;
38637;SDS011;24401;53.034;-3.030;2022-12-11T07:24:30;39.27;;;16.67;;
38637;SDS011;24401;53.034;-3.030;2022-12-11T07:27:00;33.47;;;14.57;;
38637;SDS011;24401;53.034;-3.030;2022-12-11T07:29:31;40.70;;;16.20;;
38637;SDS011;24401;53.034;-3.030;2022-12-11T07:32:01;30.80;;;15.43;;
38637;SDS011;24401;53.034;-3.030;2022-12-11T07:34:31;45.93;;;17.00;;
38637;SDS011;24401;53.034;-3.030;2022-12-11T07:37:01;39.67;;;15.90;;
38637;SDS011;24401;53.034;-3.030;2022-12-11T07:39:32;42.80;;;17.48;;
38637;SDS011;24401;53.034;-3.030;2022-12-11T07:42:02;35.95;;;15.43;;
38637;SDS011;24401;53.034;-3.030;2022-12-11T07:44:33;31.73;;;14.27;;
38637;SDS011;24401;53.034;-3.030;2022-12-11T07:47:03;34.17;;;16.10;;
38637;SDS011;24401;53.034;-3.030;2022-12-11T07:49:33;34.00;;;15.60;;
38637;SDS011;24401;53.034;-3.030;2022-12-11T07:52:03;39.30;;;15.73;;
38637;SDS011;24401;53.034;-3.030;2022-12-11T07:54:34;35.05;;;15.40;;
38637;SDS011;24401;53.034;-3.030;2022-12-11T07:57:04;41.77;;;16.03;;
38637;SDS011;24401;53.034;-3.030;2022-12-11T07:59:35;34.03;;;12.60;;
38637;SDS011;24401;53.034;-3.030;2022-12-11T08:02:05;43.70;;;16.07;;
38637;SDS011;24401;53.034;-3.030;2022-12-11T08:04:36;35.70;;;15.30;;
38637;SDS011;24401;53.034;-3.030;2022-12-11T08:07:06;44.42;;;17.52;;
38637;SDS011;24401;53.034;-3.030;2022-12-11T08:09:36;45.17;;;16.37;;
38637;SDS011;24401;53.034;-3.030;2022-12-11T08:12:06;41.20;;;16.27;;
38637;SDS011;24401;53.034;-3.030;2022-12-11T08:14:37;27.58;;;14.55;;
38637;SDS011;24401;53.034;-3.030;2022-12-11T08:17:07;36.43;;;15.30;;
38637;SDS011;24401;53.034;-3.030;2022-12-11T08:19:37;34.00;;;15.90;;
38637;SDS011;24401;53.034;-3.030;2022-12-11T08:22:07;37.60;;;15.87;;
38637;SDS011;24401;53.034;-3.030;2022-12-11T08:24:38;42.07;;;16.70;;
38637;SDS011;24401;53.034;-3.030;2022-12-11T08:27:08;30.08;;;14.70;;
38637;SDS011;24401;53.034;-3.030;2022-12-11T08:29:38;29.30;;;14.63;;
38637;SDS011;24401;53.034;-3.030;2022-12-11T08:32:08;29.13;;;14.13;;
38637;SDS011;24401;53.034;-3.030;2022-12-11T08:34:39;29.27;;;14.27;;
38637;SDS011;24401;53.034;-3.030;2022-12-11T08:37:09;30.30;;;14.83;;
38637;SDS011;24401;53.034;-3.030;2022-12-11T08:39:39;25.53;;;14.63;;
38637;SDS011;24401;53.034;-3.030;2022-12-11T08:42:12;21.60;;;13.85;;
38637;SDS011;24401;53.034;-3.030;2022-12-11T08:44:42;22.90;;;13.50;;
38637;SDS011;24401;53.034;-3.030;2022-12-11T08:47:12;19.10;;;13.03;;
38637;SDS011;24401;53.034;-3.030;2022-12-11T08:49:44;30.17;;;14.85;;
38637;SDS011;24401;53.034;-3.030;2022-12-11T08:52:14;20.33;;;13.83;;
38637;SDS011;24401;53.034;-3.030;2022-12-11T08:54:44;24.70;;;14.70;;
38637;SDS011;24401;53.034;-3.030;2022-12-11T08:57:15;28.57;;;15.53;;
38637;SDS011;24401;53.034;-3.030;2022-12-11T08:59:45;23.80;;;14.77;;
38637;SDS011;24401;53.034;-3.030;2022-12-11T09:02:15;25.93;;;15.70;;
38637;SDS011;24401;53.034;-3.030;2022-12-11T09:04:45;32.03;;;15.60;;
38637;SDS011;24401;53.034;-3.030;2022-12-11T09:07:15;25.33;;;16.77;;
38637;SDS011;24401;53.034;-3.030;2022-12-11T09:09:46;39.05;;;17.05;;
38637;SDS011;24401;53.034;-3.030;2022-12-11T09:12:16;37.28;;;18.67;;
38637;SDS011;24401;53.034;-3.030;2022-12-11T09:14:46;44.38;;;18.08;;
38637;SDS011;24401;53.034;-3.030;2022-12-11T09:17:16;40.10;;;18.52;;
38637;SDS011;24401;53.034;-3.030;2022-12-11T09:19:47;39.03;;;17.67;;
38637;SDS011;24401;53.034;-3.030;2022-12-11T09:22:17;42.20;;;18.30;;
38637;SDS011;24401;53.034;-3.030;2022-12-11T09:24:47;38.07;;;18.27;;
38637;SDS011;24401;53.034;-3.030;2022-12-11T09:27:18;41.20;;;18.23;;
38637;SDS011;24401;53.034;-3.030;2022-12-11T09:29:50;43.72;;;16.60;;
38637;SDS011;24401;53.034;-3.030;2022-12-11T09:32:20;39.13;;;17.57;;
38637;SDS011;24401;53.034;-3.030;2022-12-11T09:34:50;36.70;;;17.10;;
38637;SDS011;24401;53.034;-3.030;2022-12-11T09:37:20;37.40;;;16.97;;
38637;SDS011;24401;53.034;-3.030;2022-12-11T09:39:51;43.47;;;19.37;;
38637;SDS011;24401;53.034;-3.030;2022-12-11T09:42:26;35.53;;;17.40;;
38637;SDS011;24401;53.034;-3.030;2022-12-11T09:45:00;41.35;;;18.50;;
38637;SDS011;24401;53.034;-3.030;2022-12-11T09:47:33;42.03;;;18.45;;
38637;SDS011;24401;53.034;-3.030;2022-12-11T09:50:18;47.17;;;19.67;;
38637;SDS011;24401;53.034;-3.030;2022-12-11T09:53:02;37.72;;;19.10;;
38637;SDS011;24401;53.034;-3.030;2022-12-11T09:55:38;39.00;;;18.35;;
38637;SDS011;24401;53.034;-3.030;2022-12-11T09:58:15;43.05;;;19.98;;
38637;SDS011;24401;53.034;-3.030;2022-12-11T10:00:48;41.63;;;20.35;;
38637;SDS011;24401;53.034;-3.030;2022-12-11T10:03:35;47.20;;;20.90;;
38637;SDS011;24401;53.034;-3.030;2022-12-11T10:11:26;47.00;;;19.48;;
38637;SDS011;24401;53.034;-3.030;2022-12-11T10:16:42;46.17;;;19.47;;
38637;SDS011;24401;53.034;-3.030;2022-12-11T10:19:15;42.85;;;17.55;;
38637;SDS011;24401;53.034;-3.030;2022-12-11T10:21:46;45.83;;;19.33;;
38637;SDS011;24401;53.034;-3.030;2022-12-11T10:26:48;35.60;;;17.27;;
38637;SDS011;24401;53.034;-3.030;2022-12-11T10:29:20;33.22;;;16.98;;
38637;SDS011;24401;53.034;-3.030;2022-12-11T10:31:56;36.77;;;17.47;;
38637;SDS011;24401;53.034;-3.030;2022-12-11T10:37:00;35.67;;;17.67;;
38637;SDS011;24401;53.034;-3.030;2022-12-11T10:39:31;32.57;;;17.90;;
38637;SDS011;24401;53.034;-3.030;2022-12-11T10:42:01;46.10;;;20.20;;
38637;SDS011;24401;53.034;-3.030;2022-12-11T10:44:39;57.80;;;22.77;;
38637;SDS011;24401;53.034;-3.030;2022-12-11T10:47:10;56.90;;;21.13;;
38637;SDS011;24401;53.034;-3.030;2022-12-11T10:49:51;44.75;;;19.70;;
38637;SDS011;24401;53.034;-3.030;2022-12-11T10:52:22;54.58;;;21.17;;
38637;SDS011;24401;53.034;-3.030;2022-12-11T10:54:54;41.53;;;20.20;;
38637;SDS011;24401;53.034;-3.030;2022-12-11T10:57:26;49.95;;;20.58;;
38637;SDS011;24401;53.034;-3.030;2022-12-11T10:59:57;47.53;;;19.83;;
38637;SDS011;24401;53.034;-3.030;2022-12-11T11:02:29;51.27;;;21.00;;
38637;SDS011;24401;53.034;-3.030;2022-12-11T11:07:30;48.97;;;21.10;;
38637;SDS011;24401;53.034;-3.030;2022-12-11T11:10:18;42.87;;;19.87;;
38637;SDS011;24401;53.034;-3.030;2022-12-11T11:12:49;43.50;;;20.60;;
38637;SDS011;24401;53.034;-3.030;2022-12-11T11:17:50;44.47;;;20.63;;
38637;SDS011;24401;53.034;-3.030;2022-12-11T11:20:22;33.97;;;17.52;;
38637;SDS011;24401;53.034;-3.030;2022-12-11T11:25:24;22.92;;;13.30;;
38637;SDS011;24401;53.034;-3.030;2022-12-11T11:28:03;20.63;;;13.02;;
38637;SDS011;24401;53.034;-3.030;2022-12-11T11:30:34;21.90;;;13.15;;
38637;SDS011;24401;53.034;-3.030;2022-12-11T11:33:11;20.23;;;13.35;;
38637;SDS011;24401;53.034;-3.030;2022-12-11T11:35:52;20.45;;;12.98;;
38637;SDS011;24401;53.034;-3.030;2022-12-11T11:38:42;28.40;;;13.93;;
38637;SDS011;24401;53.034;-3.030;2022-12-11T11:41:23;18.55;;;12.30;;
38637;SDS011;24401;53.034;-3.030;2022-12-11T11:43:58;20.38;;;11.95;;
38637;SDS011;24401;53.034;-3.030;2022-12-11T11:46:43;21.25;;;12.02;;
38637;SDS011;24401;53.034;-3.030;2022-12-11T11:49:19;18.17;;;11.43;;
38637;SDS011;24401;53.034;-3.030;2022-12-11T11:57:14;12.90;;;10.23;;
38637;SDS011;24401;53.034;-3.030;2022-12-11T11:59:48;15.90;;;10.07;;
38637;SDS011;24401;53.034;-3.030;2022-12-11T12:02:19;15.57;;;9.57;;
38637;SDS011;24401;53.034;-3.030;2022-12-11T12:04:50;12.90;;;10.93;;
38637;SDS011;24401;53.034;-3.030;2022-12-11T12:12:42;17.40;;;11.80;;
38637;SDS011;24401;53.034;-3.030;2022-12-11T12:17:54;18.27;;;11.90;;
38637;SDS011;24401;53.034;-3.030;2022-12-11T12:26:19;12.90;;;11.57;;
38637;SDS011;24401;53.034;-3.030;2022-12-11T12:28:43;14.15;;;11.07;;
38637;SDS011;24401;53.034;-3.030;2022-12-11T12:44:34;12.60;;;9.90;;
38637;SDS011;24401;53.034;-3.030;2022-12-11T12:47:11;12.43;;;9.40;;
38637;SDS011;24401;53.034;-3.030;2022-12-11T12:49:43;10.40;;;9.00;;
38637;SDS011;24401;53.034;-3.030;2022-12-11T12:52:18;12.25;;;9.48;;
38637;SDS011;24401;53.034;-3.030;2022-12-11T12:54:51;11.02;;;9.38;;
38637;SDS011;24401;53.034;-3.030;2022-12-11T12:57:43;11.32;;;9.93;;
38637;SDS011;24401;53.034;-3.030;2022-12-11T13:00:24;16.92;;;10.38;;
38637;SDS011;24401;53.034;-3.030;2022-12-11T13:02:55;12.68;;;10.45;;
38637;SDS011;24401;53.034;-3.030;2022-12-11T13:05:27;15.80;;;10.03;;
38637;SDS011;24401;53.034;-3.030;2022-12-11T13:07:59;11.95;;;10.48;;
38637;SDS011;24401;53.034;-3.030;2022-12-11T13:10:34;10.73;;;9.55;;
38637;SDS011;24401;53.034;-3.030;2022-12-11T13:13:05;12.93;;;10.35;;
38637;SDS011;24401;53.034;-3.030;2022-12-11T13:15:54;12.57;;;10.02;;
38637;SDS011;24401;53.034;-3.030;2022-12-11T13:18:37;10.98;;;9.75;;
38637;SDS011;24401;53.034;-3.030;2022-12-11T13:26:42;13.65;;;9.65;;
38637;SDS011;24401;53.034;-3.030;2022-12-11T13:32:04;13.07;;;9.82;;
38637;SDS011;24401;53.034;-3.030;2022-12-11T13:34:35;13.45;;;11.13;;
38637;SDS011;24401;53.034;-3.030;2022-12-11T13:37:17;11.25;;;9.95;;
38637;SDS011;24401;53.034;-3.030;2022-12-11T13:39:49;12.73;;;10.50;;
38637;SDS011;24401;53.034;-3.030;2022-12-11T13:42:22;13.60;;;9.70;;
38637;SDS011;24401;53.034;-3.030;2022-12-11T13:44:53;9.43;;;8.45;;
38637;SDS011;24401;53.034;-3.030;2022-12-11T13:47:24;12.43;;;9.00;;
38637;SDS011;24401;53.034;-3.030;2022-12-11T13:49:58;10.23;;;9.23;;
38637;SDS011;24401;53.034;-3.030;2022-12-11T13:52:30;10.27;;;8.98;;
38637;SDS011;24401;53.034;-3.030;2022-12-11T13:55:13;11.35;;;10.02;;
38637;SDS011;24401;53.034;-3.030;2022-12-11T13:57:45;19.63;;;13.52;;
38637;SDS011;24401;53.034;-3.030;2022-12-11T14:00:18;11.33;;;10.03;;
38637;SDS011;24401;53.034;-3.030;2022-12-11T14:02:50;9.25;;;8.35;;
38637;SDS011;24401;53.034;-3.030;2022-12-11T14:05:21;9.63;;;8.73;;
38637;SDS011;24401;53.034;-3.030;2022-12-11T14:07:52;9.33;;;8.37;;
38637;SDS011;24401;53.034;-3.030;2022-12-11T14:10:24;12.13;;;9.45;;
38637;SDS011;24401;53.034;-3.030;2022-12-11T14:12:56;11.93;;;9.18;;
38637;SDS011;24401;53.034;-3.030;2022-12-11T14:15:28;9.27;;;8.32;;
38637;SDS011;24401;53.034;-3.030;2022-12-11T14:17:59;10.17;;;9.07;;
38637;SDS011;24401;53.034;-3.030;2022-12-11T14:20:30;10.85;;;9.73;;
38637;SDS011;24401;53.034;-3.030;2022-12-11T14:25:38;8.68;;;7.88;;
38637;SDS011;24401;53.034;-3.030;2022-12-11T14:28:14;9.73;;;8.83;;
38637;SDS011;24401;53.034;-3.030;2022-12-11T14:30:46;11.52;;;7.95;;
38637;SDS011;24401;53.034;-3.030;2022-12-11T14:33:18;10.00;;;8.55;;
38637;SDS011;24401;53.034;-3.030;2022-12-11T14:35:51;8.43;;;7.70;;
38637;SDS011;24401;53.034;-3.030;2022-12-11T14:38:26;8.67;;;7.80;;
38637;SDS011;24401;53.034;-3.030;2022-12-11T14:40:58;10.55;;;8.10;;
38637;SDS011;24401;53.034;-3.030;2022-12-11T14:43:36;9.40;;;8.60;;
38637;SDS011;24401;53.034;-3.030;2022-12-11T14:46:12;10.43;;;9.52;;
38637;SDS011;24401;53.034;-3.030;2022-12-11T14:48:47;10.85;;;8.85;;
38637;SDS011;24401;53.034;-3.030;2022-12-11T14:51:19;9.65;;;8.70;;
38637;SDS011;24401;53.034;-3.030;2022-12-11T14:53:49;16.57;;;9.27;;
38637;SDS011;24401;53.034;-3.030;2022-12-11T14:56:24;12.73;;;9.57;;
38637;SDS011;24401;53.034;-3.030;2022-12-11T14:59:00;12.90;;;9.60;;
38637;SDS011;24401;53.034;-3.030;2022-12-11T15:01:32;11.65;;;10.52;;
38637;SDS011;24401;53.034;-3.030;2022-12-11T15:04:04;12.18;;;10.00;;
38637;SDS011;24401;53.034;-3.030;2022-12-11T15:06:41;11.45;;;9.63;;
38637;SDS011;24401;53.034;-3.030;2022-12-11T15:11:46;13.10;;;10.75;;
38637;SDS011;24401;53.034;-3.030;2022-12-11T15:14:17;13.55;;;10.02;;
38637;SDS011;24401;53.034;-3.030;2022-12-11T15:16:48;16.75;;;11.43;;
38637;SDS011;24401;53.034;-3.030;2022-12-11T15:19:20;10.90;;;9.30;;
38637;SDS011;24401;53.034;-3.030;2022-12-11T15:21:52;10.25;;;9.05;;
38637;SDS011;24401;53.034;-3.030;2022-12-11T15:24:24;13.60;;;10.47;;
38637;SDS011;24401;53.034;-3.030;2022-12-11T15:26:56;14.30;;;11.05;;
38637;SDS011;24401;53.034;-3.030;2022-12-11T15:34:46;11.30;;;9.85;;
38637;SDS011;24401;53.034;-3.030;2022-12-11T15:37:18;17.65;;;11.07;;
38637;SDS011;24401;53.034;-3.030;2022-12-11T15:39:49;12.80;;;9.25;;
38637;SDS011;24401;53.034;-3.030;2022-12-11T15:42:40;12.90;;;9.70;;
38637;SDS011;24401;53.034;-3.030;2022-12-11T15:45:20;11.27;;;9.90;;
38637;SDS011;24401;53.034;-3.030;2022-12-11T15:47:51;15.23;;;10.30;;
38637;SDS011;24401;53.034;-3.030;2022-12-11T15:50:22;18.60;;;11.23;;
38637;SDS011;24401;53.034;-3.030;2022-12-11T15:52:54;15.70;;;10.80;;
38637;SDS011;24401;53.034;-3.030;2022-12-11T15:55:25;18.45;;;11.00;;
38637;SDS011;24401;53.034;-3.030;2022-12-11T15:58:03;15.17;;;10.30;;
38637;SDS011;24401;53.034;-3.030;2022-12-11T16:00:34;13.93;;;11.07;;
38637;SDS011;24401;53.034;-3.030;2022-12-11T16:03:04;20.70;;;11.03;;
38637;SDS011;24401;53.034;-3.030;2022-12-11T16:05:34;18.90;;;11.47;;
38637;SDS011;24401;53.034;-3.030;2022-12-11T16:08:05;14.73;;;10.90;;
38637;SDS011;24401;53.034;-3.030;2022-12-11T16:10:35;13.20;;;10.83;;
38637;SDS011;24401;53.034;-3.030;2022-12-11T16:13:06;12.55;;;10.82;;
38637;SDS011;24401;53.034;-3.030;2022-12-11T16:15:37;17.73;;;10.88;;